Aurillac Airport

Airport
ICAO code: 
LFLW
IATA Code: 
AUR
Summary
ICAO Region: 
EUR
Territory: 
Location: 
, Auvergne
Serving: 
Aurillac
Elevation: 
2096 ft
Coordinates: 
Aerial View: 
44° 53' 28.997" N, 2° 25' 18.998" E
Metar
Observation
LFLW 302100Z AUTO 10003KT 9999 BKN027 M05/M06 Q1023
Station
Aurillac
Date/Time
2021-11-30 21:00:00
Wind direction
100°
Wind speed
03 kts
Lowest cloud amount
broken clouds
Temperature
-5°C
Dew point
-6°C
Humidity
92%
QNH
1023 hPa
Weather condition
n/a

Runways

Designator Length Width Surface Rops
15/33 1700 30 ASP No/No
Airport map: 
Aerial View: 

SKYbrary Partners:

Safety knowledge contributed by: